sensor_id;sensor_type;location;lat;lon;timestamp;pressure;altitude;pressure_sealevel;temperature;humidity
43257;BME280;28860;43.212;27.934;2023-07-28T00:00:50;100899.09;;;23.44;51.82
43257;BME280;28860;43.212;27.934;2023-07-28T00:03:16;100906.41;;;23.44;52.01
43257;BME280;28860;43.212;27.934;2023-07-28T00:05:42;100936.22;;;23.47;51.84
43257;BME280;28860;43.212;27.934;2023-07-28T00:08:07;100927.28;;;23.53;51.18
43257;BME280;28860;43.212;27.934;2023-07-28T00:10:33;100926.09;;;23.56;51.26
43257;BME280;28860;43.212;27.934;2023-07-28T00:12:59;100925.22;;;23.55;51.23
43257;BME280;28860;43.212;27.934;2023-07-28T00:15:24;100919.41;;;23.58;51.27
43257;BME280;28860;43.212;27.934;2023-07-28T00:17:50;100913.59;;;23.62;51.09
43257;BME280;28860;43.212;27.934;2023-07-28T00:20:16;100905.41;;;23.53;51.12
43257;BME280;28860;43.212;27.934;2023-07-28T00:22:41;100903.34;;;23.55;50.90
43257;BME280;28860;43.212;27.934;2023-07-28T00:25:07;100908.81;;;23.55;51.05
43257;BME280;28860;43.212;27.934;2023-07-28T00:27:33;100925.91;;;23.57;51.29
43257;BME280;28860;43.212;27.934;2023-07-28T00:29:59;100922.84;;;23.60;51.05
43257;BME280;28860;43.212;27.934;2023-07-28T00:32:24;100929.88;;;23.55;50.90
43257;BME280;28860;43.212;27.934;2023-07-28T00:34:53;100909.16;;;23.60;50.60
43257;BME280;28860;43.212;27.934;2023-07-28T00:37:19;100906.75;;;23.57;50.65
43257;BME280;28860;43.212;27.934;2023-07-28T00:39:46;100898.59;;;23.32;49.80
43257;BME280;28860;43.212;27.934;2023-07-28T00:42:11;100917.38;;;23.44;49.57
43257;BME280;28860;43.212;27.934;2023-07-28T00:44:37;100912.75;;;23.36;49.03
43257;BME280;28860;43.212;27.934;2023-07-28T00:47:06;100911.88;;;23.44;48.53
43257;BME280;28860;43.212;27.934;2023-07-28T00:49:31;100909.84;;;23.29;48.29
43257;BME280;28860;43.212;27.934;2023-07-28T00:51:57;100937.88;;;23.23;48.34
43257;BME280;28860;43.212;27.934;2023-07-28T00:54:23;100933.13;;;23.34;48.10
43257;BME280;28860;43.212;27.934;2023-07-28T00:56:49;100940.31;;;23.35;47.85
43257;BME280;28860;43.212;27.934;2023-07-28T00:59:18;100934.84;;;23.35;47.83
43257;BME280;28860;43.212;27.934;2023-07-28T01:01:43;100943.03;;;23.43;47.65
43257;BME280;28860;43.212;27.934;2023-07-28T01:04:09;100948.84;;;23.48;47.83
43257;BME280;28860;43.212;27.934;2023-07-28T01:06:53;100939.97;;;23.38;47.86
43257;BME280;28860;43.212;27.934;2023-07-28T01:09:28;100951.25;;;23.51;47.71
43257;BME280;28860;43.212;27.934;2023-07-28T01:11:58;100947.16;;;23.39;47.90
43257;BME280;28860;43.212;27.934;2023-07-28T01:14:26;100939.97;;;23.38;47.54
43257;BME280;28860;43.212;27.934;2023-07-28T01:16:52;100955.19;;;23.32;47.42
43257;BME280;28860;43.212;27.934;2023-07-28T01:19:19;100949.16;;;23.20;47.57
43257;BME280;28860;43.212;27.934;2023-07-28T01:22:03;100953.47;;;23.23;47.58
43257;BME280;28860;43.212;27.934;2023-07-28T01:24:42;100937.88;;;23.07;47.46
43257;BME280;28860;43.212;27.934;2023-07-28T01:27:14;100957.41;;;23.28;47.38
43257;BME280;28860;43.212;27.934;2023-07-28T01:29:40;100935.47;;;23.12;47.70
43257;BME280;28860;43.212;27.934;2023-07-28T01:32:07;100956.00;;;23.24;47.99
43257;BME280;28860;43.212;27.934;2023-07-28T01:34:32;100964.19;;;23.08;48.60
43257;BME280;28860;43.212;27.934;2023-07-28T01:36:58;100961.44;;;22.91;48.96
43257;BME280;28860;43.212;27.934;2023-07-28T01:39:23;100955.81;;;23.01;48.89
43257;BME280;28860;43.212;27.934;2023-07-28T01:41:52;100952.94;;;23.02;48.81
43257;BME280;28860;43.212;27.934;2023-07-28T01:44:18;100965.56;;;23.03;48.68
43257;BME280;28860;43.212;27.934;2023-07-28T01:46:43;100966.25;;;23.14;48.34
43257;BME280;28860;43.212;27.934;2023-07-28T01:49:09;100956.63;;;22.85;48.13
43257;BME280;28860;43.212;27.934;2023-07-28T01:51:35;100960.91;;;22.87;47.82
43257;BME280;28860;43.212;27.934;2023-07-28T01:54:01;100958.41;;;23.02;47.62
43257;BME280;28860;43.212;27.934;2023-07-28T01:56:29;100972.41;;;23.08;47.50
43257;BME280;28860;43.212;27.934;2023-07-28T01:58:55;100970.34;;;23.10;46.92
43257;BME280;28860;43.212;27.934;2023-07-28T02:01:20;100968.81;;;23.15;46.62
43257;BME280;28860;43.212;27.934;2023-07-28T02:03:46;100978.59;;;23.18;46.70
43257;BME280;28860;43.212;27.934;2023-07-28T02:06:14;100984.22;;;23.25;46.77
43257;BME280;28860;43.212;27.934;2023-07-28T02:08:40;100980.16;;;23.29;46.43
43257;BME280;28860;43.212;27.934;2023-07-28T02:11:08;100989.38;;;23.28;46.80
43257;BME280;28860;43.212;27.934;2023-07-28T02:13:36;100976.91;;;23.34;46.53
43257;BME280;28860;43.212;27.934;2023-07-28T02:16:02;100973.13;;;23.18;47.09
43257;BME280;28860;43.212;27.934;2023-07-28T02:18:30;100985.63;;;23.29;46.88
43257;BME280;28860;43.212;27.934;2023-07-28T02:20:56;101004.81;;;23.37;47.13
43257;BME280;28860;43.212;27.934;2023-07-28T02:23:21;100992.63;;;23.40;47.63
43257;BME280;28860;43.212;27.934;2023-07-28T02:25:47;100995.03;;;23.35;47.29
43257;BME280;28860;43.212;27.934;2023-07-28T02:28:13;101007.00;;;23.42;47.48
43257;BME280;28860;43.212;27.934;2023-07-28T02:30:38;100998.09;;;23.40;47.45
43257;BME280;28860;43.212;27.934;2023-07-28T02:33:04;100997.78;;;23.35;47.85
43257;BME280;28860;43.212;27.934;2023-07-28T02:35:30;101010.75;;;23.41;47.82
43257;BME280;28860;43.212;27.934;2023-07-28T02:37:59;101007.53;;;23.37;47.84
43257;BME280;28860;43.212;27.934;2023-07-28T02:40:25;101014.88;;;23.37;47.71
43257;BME280;28860;43.212;27.934;2023-07-28T02:42:51;100990.53;;;23.25;48.16
43257;BME280;28860;43.212;27.934;2023-07-28T02:45:18;100997.41;;;23.29;48.15
43257;BME280;28860;43.212;27.934;2023-07-28T02:47:45;100995.69;;;23.28;48.13
43257;BME280;28860;43.212;27.934;2023-07-28T02:50:10;101011.09;;;23.38;48.34
43257;BME280;28860;43.212;27.934;2023-07-28T02:52:37;101000.50;;;23.35;48.20
43257;BME280;28860;43.212;27.934;2023-07-28T02:55:03;100998.22;;;23.22;48.34
43257;BME280;28860;43.212;27.934;2023-07-28T02:57:28;101001.50;;;23.25;48.54
43257;BME280;28860;43.212;27.934;2023-07-28T02:59:54;100998.06;;;23.23;48.29
43257;BME280;28860;43.212;27.934;2023-07-28T03:02:20;101001.16;;;23.20;48.32
43257;BME280;28860;43.212;27.934;2023-07-28T03:04:46;101007.66;;;23.19;48.47
43257;BME280;28860;43.212;27.934;2023-07-28T03:07:11;101012.44;;;23.25;48.49
43257;BME280;28860;43.212;27.934;2023-07-28T03:09:37;101013.47;;;23.24;47.89
43257;BME280;28860;43.212;27.934;2023-07-28T03:12:03;101009.97;;;22.97;48.43
43257;BME280;28860;43.212;27.934;2023-07-28T03:14:31;101000.44;;;23.01;48.21
43257;BME280;28860;43.212;27.934;2023-07-28T03:17:00;101018.59;;;23.19;48.19
43257;BME280;28860;43.212;27.934;2023-07-28T03:19:25;101023.38;;;23.17;48.01
43257;BME280;28860;43.212;27.934;2023-07-28T03:21:51;101019.97;;;23.15;48.02
43257;BME280;28860;43.212;27.934;2023-07-28T03:24:16;101037.06;;;23.17;47.86
43257;BME280;28860;43.212;27.934;2023-07-28T03:26:42;101037.78;;;23.27;47.56
43257;BME280;28860;43.212;27.934;2023-07-28T03:29:09;101032.41;;;23.01;47.75
43257;BME280;28860;43.212;27.934;2023-07-28T03:31:35;101024.34;;;22.99;48.22
43257;BME280;28860;43.212;27.934;2023-07-28T03:34:02;101048.47;;;22.96;49.64
43257;BME280;28860;43.212;27.934;2023-07-28T03:36:28;101052.38;;;22.93;50.45
43257;BME280;28860;43.212;27.934;2023-07-28T03:38:54;101055.63;;;22.97;50.94
43257;BME280;28860;43.212;27.934;2023-07-28T03:41:20;101058.91;;;23.00;50.84
43257;BME280;28860;43.212;27.934;2023-07-28T03:43:47;101047.81;;;22.67;51.79
43257;BME280;28860;43.212;27.934;2023-07-28T03:46:13;101061.22;;;22.79;51.47
43257;BME280;28860;43.212;27.934;2023-07-28T03:48:38;101060.53;;;22.85;51.43
43257;BME280;28860;43.212;27.934;2023-07-28T03:51:04;101058.13;;;22.73;51.15
43257;BME280;28860;43.212;27.934;2023-07-28T03:53:30;101068.84;;;22.40;52.04
43257;BME280;28860;43.212;27.934;2023-07-28T03:55:55;101065.38;;;22.30;52.70
43257;BME280;28860;43.212;27.934;2023-07-28T03:58:29;101082.66;;;22.57;52.16
43257;BME280;28860;43.212;27.934;2023-07-28T04:00:55;101075.50;;;22.64;52.22
43257;BME280;28860;43.212;27.934;2023-07-28T04:03:21;101062.44;;;22.50;52.43
43257;BME280;28860;43.212;27.934;2023-07-28T04:05:46;101082.25;;;22.52;52.89
43257;BME280;28860;43.212;27.934;2023-07-28T04:08:12;101078.94;;;22.40;52.93
43257;BME280;28860;43.212;27.934;2023-07-28T04:10:41;101091.34;;;22.34;53.33
43257;BME280;28860;43.212;27.934;2023-07-28T04:13:09;101096.56;;;22.45;52.62
43257;BME280;28860;43.212;27.934;2023-07-28T04:15:35;101078.63;;;22.16;52.99
43257;BME280;28860;43.212;27.934;2023-07-28T04:18:01;101101.59;;;22.32;53.00
43257;BME280;28860;43.212;27.934;2023-07-28T04:20:29;101101.41;;;22.33;52.88
43257;BME280;28860;43.212;27.934;2023-07-28T04:22:55;101108.97;;;22.58;52.32
43257;BME280;28860;43.212;27.934;2023-07-28T04:25:23;101110.22;;;22.19;52.99
43257;BME280;28860;43.212;27.934;2023-07-28T04:27:49;101108.66;;;22.16;53.16
43257;BME280;28860;43.212;27.934;2023-07-28T04:30:17;101106.66;;;22.00;53.54
43257;BME280;28860;43.212;27.934;2023-07-28T04:32:43;101124.16;;;22.34;53.01
43257;BME280;28860;43.212;27.934;2023-07-28T04:35:12;101121.16;;;22.45;52.69
43257;BME280;28860;43.212;27.934;2023-07-28T04:37:38;101109.59;;;22.52;52.50
43257;BME280;28860;43.212;27.934;2023-07-28T04:40:07;101131.31;;;22.53;52.48
43257;BME280;28860;43.212;27.934;2023-07-28T04:42:34;101122.31;;;22.69;52.53
43257;BME280;28860;43.212;27.934;2023-07-28T04:45:03;101110.09;;;22.82;51.95
43257;BME280;28860;43.212;27.934;2023-07-28T04:47:31;101103.59;;;22.83;51.74
43257;BME280;28860;43.212;27.934;2023-07-28T04:49:57;101109.69;;;22.68;52.13
43257;BME280;28860;43.212;27.934;2023-07-28T04:52:23;101110.47;;;22.52;52.33
43257;BME280;28860;43.212;27.934;2023-07-28T04:54:49;101116.03;;;22.69;52.07
43257;BME280;28860;43.212;27.934;2023-07-28T04:57:15;101124.72;;;22.46;52.22
43257;BME280;28860;43.212;27.934;2023-07-28T04:59:40;101104.81;;;22.54;51.78
43257;BME280;28860;43.212;27.934;2023-07-28T05:02:07;101105.28;;;22.75;51.17
43257;BME280;28860;43.212;27.934;2023-07-28T05:04:32;101114.19;;;22.78;51.48
43257;BME280;28860;43.212;27.934;2023-07-28T05:06:58;101110.41;;;22.79;51.44
43257;BME280;28860;43.212;27.934;2023-07-28T05:09:26;101102.22;;;22.79;51.15
43257;BME280;28860;43.212;27.934;2023-07-28T05:11:53;101097.09;;;22.84;51.07
43257;BME280;28860;43.212;27.934;2023-07-28T05:14:21;101102.97;;;22.97;50.93
43257;BME280;28860;43.212;27.934;2023-07-28T05:16:47;101100.28;;;23.06;50.61
43257;BME280;28860;43.212;27.934;2023-07-28T05:19:13;101104.78;;;23.23;50.22
43257;BME280;28860;43.212;27.934;2023-07-28T05:21:38;101104.69;;;22.98;50.31
43257;BME280;28860;43.212;27.934;2023-07-28T05:24:04;101110.41;;;23.22;50.17
43257;BME280;28860;43.212;27.934;2023-07-28T05:26:30;101106.09;;;23.11;50.15
43257;BME280;28860;43.212;27.934;2023-07-28T05:28:56;101089.38;;;23.22;49.89
43257;BME280;28860;43.212;27.934;2023-07-28T05:31:24;101111.34;;;23.39;49.65
43257;BME280;28860;43.212;27.934;2023-07-28T05:33:50;101115.03;;;23.21;50.03
43257;BME280;28860;43.212;27.934;2023-07-28T05:36:16;101110.25;;;23.23;50.13
43257;BME280;28860;43.212;27.934;2023-07-28T05:38:42;101106.06;;;23.45;49.75
43257;BME280;28860;43.212;27.934;2023-07-28T05:41:07;101131.91;;;23.68;49.22
43257;BME280;28860;43.212;27.934;2023-07-28T05:43:33;101105.88;;;23.47;49.62
43257;BME280;28860;43.212;27.934;2023-07-28T05:46:00;101130.56;;;23.80;48.92
43257;BME280;28860;43.212;27.934;2023-07-28T05:48:29;101103.84;;;23.57;49.12
43257;BME280;28860;43.212;27.934;2023-07-28T05:50:55;101137.03;;;23.54;49.04
43257;BME280;28860;43.212;27.934;2023-07-28T05:53:21;101116.00;;;23.71;48.57
43257;BME280;28860;43.212;27.934;2023-07-28T05:55:47;101114.13;;;23.80;48.92
43257;BME280;28860;43.212;27.934;2023-07-28T05:58:49;101110.38;;;23.89;48.48
43257;BME280;28860;43.212;27.934;2023-07-28T06:01:35;101123.75;;;24.09;48.56
43257;BME280;28860;43.212;27.934;2023-07-28T06:04:21;101093.41;;;23.61;49.41
43257;BME280;28860;43.212;27.934;2023-07-28T06:07:11;101115.50;;;24.01;49.00
43257;BME280;28860;43.212;27.934;2023-07-28T06:10:03;101111.25;;;24.15;48.82
43257;BME280;28860;43.212;27.934;2023-07-28T06:12:49;101100.94;;;24.25;48.43
43257;BME280;28860;43.212;27.934;2023-07-28T06:15:34;101089.13;;;24.16;48.46
43257;BME280;28860;43.212;27.934;2023-07-28T06:18:15;101091.53;;;24.36;48.23
43257;BME280;28860;43.212;27.934;2023-07-28T06:21:11;101111.75;;;24.35;48.00
43257;BME280;28860;43.212;27.934;2023-07-28T06:24:09;101108.66;;;23.80;49.25
43257;BME280;28860;43.212;27.934;2023-07-28T06:26:47;101108.00;;;24.20;48.60
43257;BME280;28860;43.212;27.934;2023-07-28T06:29:28;101110.38;;;24.14;48.72
43257;BME280;28860;43.212;27.934;2023-07-28T06:32:08;101102.69;;;24.18;48.47
43257;BME280;28860;43.212;27.934;2023-07-28T06:34:36;101107.63;;;24.23;48.94
43257;BME280;28860;43.212;27.934;2023-07-28T06:37:08;101100.22;;;24.48;47.98
43257;BME280;28860;43.212;27.934;2023-07-28T06:39:37;101113.72;;;24.58;48.51
43257;BME280;28860;43.212;27.934;2023-07-28T06:42:04;101117.44;;;24.73;48.24
43257;BME280;28860;43.212;27.934;2023-07-28T06:44:31;101098.91;;;24.76;47.94
43257;BME280;28860;43.212;27.934;2023-07-28T06:46:57;101099.28;;;24.81;47.78
43257;BME280;28860;43.212;27.934;2023-07-28T06:49:23;101109.19;;;24.90;47.49
43257;BME280;28860;43.212;27.934;2023-07-28T06:51:48;101121.84;;;24.99;47.28
43257;BME280;28860;43.212;27.934;2023-07-28T06:54:14;101117.09;;;24.85;47.44
43257;BME280;28860;43.212;27.934;2023-07-28T06:56:40;101127.84;;;24.95;47.06
43257;BME280;28860;43.212;27.934;2023-07-28T06:59:06;101127.09;;;24.78;47.28
43257;BME280;28860;43.212;27.934;2023-07-28T07:01:35;101127.03;;;24.86;47.27
43257;BME280;28860;43.212;27.934;2023-07-28T07:04:01;101125.78;;;24.97;46.92
43257;BME280;28860;43.212;27.934;2023-07-28T07:06:27;101138.59;;;25.05;46.41
43257;BME280;28860;43.212;27.934;2023-07-28T07:08:55;101130.44;;;24.88;46.52
43257;BME280;28860;43.212;27.934;2023-07-28T07:11:20;101123.22;;;24.95;45.98
43257;BME280;28860;43.212;27.934;2023-07-28T07:13:46;101143.13;;;24.89;46.34
43257;BME280;28860;43.212;27.934;2023-07-28T07:16:18;101129.41;;;24.89;46.05
43257;BME280;28860;43.212;27.934;2023-07-28T07:18:46;101148.66;;;25.21;45.82
43257;BME280;28860;43.212;27.934;2023-07-28T07:21:12;101133.06;;;25.21;45.78
43257;BME280;28860;43.212;27.934;2023-07-28T07:23:37;101128.34;;;24.98;46.01
43257;BME280;28860;43.212;27.934;2023-07-28T07:26:09;101152.06;;;25.31;45.41
43257;BME280;28860;43.212;27.934;2023-07-28T07:28:40;101153.25;;;25.28;45.09
43257;BME280;28860;43.212;27.934;2023-07-28T07:31:12;101145.97;;;25.44;44.89
43257;BME280;28860;43.212;27.934;2023-07-28T07:33:39;101138.94;;;25.41;45.02
43257;BME280;28860;43.212;27.934;2023-07-28T07:36:15;101151.56;;;25.19;43.94
43257;BME280;28860;43.212;27.934;2023-07-28T07:38:44;101139.81;;;25.42;43.29
43257;BME280;28860;43.212;27.934;2023-07-28T07:41:13;101123.06;;;25.28;41.81
43257;BME280;28860;43.212;27.934;2023-07-28T07:43:44;101127.88;;;25.26;42.53
43257;BME280;28860;43.212;27.934;2023-07-28T07:46:10;101149.16;;;25.24;42.62
43257;BME280;28860;43.212;27.934;2023-07-28T07:48:38;101150.50;;;25.28;41.35
43257;BME280;28860;43.212;27.934;2023-07-28T07:51:08;101137.47;;;25.30;41.57
43257;BME280;28860;43.212;27.934;2023-07-28T07:53:36;101127.13;;;25.41;40.69
43257;BME280;28860;43.212;27.934;2023-07-28T07:56:06;101145.97;;;25.52;40.49
43257;BME280;28860;43.212;27.934;2023-07-28T07:58:35;101122.88;;;25.62;41.10
43257;BME280;28860;43.212;27.934;2023-07-28T08:01:01;101136.72;;;25.92;41.27
43257;BME280;28860;43.212;27.934;2023-07-28T08:03:27;101133.72;;;26.02;40.67
43257;BME280;28860;43.212;27.934;2023-07-28T08:05:53;101123.22;;;26.05;40.18
43257;BME280;28860;43.212;27.934;2023-07-28T08:08:23;101115.78;;;25.91;39.86
43257;BME280;28860;43.212;27.934;2023-07-28T08:10:52;101137.88;;;26.21;40.27
43257;BME280;28860;43.212;27.934;2023-07-28T08:13:20;101126.06;;;25.97;39.17
43257;BME280;28860;43.212;27.934;2023-07-28T08:15:49;101115.50;;;26.24;37.96
43257;BME280;28860;43.212;27.934;2023-07-28T08:18:17;101108.78;;;26.26;37.76
43257;BME280;28860;43.212;27.934;2023-07-28T08:20:45;101106.44;;;26.38;37.96
43257;BME280;28860;43.212;27.934;2023-07-28T08:23:14;101111.44;;;26.20;38.27
43257;BME280;28860;43.212;27.934;2023-07-28T08:25:40;101122.81;;;26.32;38.07
43257;BME280;28860;43.212;27.934;2023-07-28T08:28:08;101106.75;;;25.82;37.21
43257;BME280;28860;43.212;27.934;2023-07-28T08:30:36;101102.16;;;26.21;37.25
43257;BME280;28860;43.212;27.934;2023-07-28T08:33:02;101119.53;;;25.98;38.39
43257;BME280;28860;43.212;27.934;2023-07-28T08:35:28;101105.88;;;26.28;37.11
43257;BME280;28860;43.212;27.934;2023-07-28T08:37:54;101106.28;;;26.55;37.37
43257;BME280;28860;43.212;27.934;2023-07-28T08:40:23;101102.19;;;26.66;37.53
43257;BME280;28860;43.212;27.934;2023-07-28T08:42:53;101104.00;;;26.74;37.36
43257;BME280;28860;43.212;27.934;2023-07-28T08:45:19;101102.50;;;26.86;37.06
43257;BME280;28860;43.212;27.934;2023-07-28T08:47:45;101102.66;;;27.00;35.92
43257;BME280;28860;43.212;27.934;2023-07-28T08:50:11;101097.91;;;26.93;36.38
43257;BME280;28860;43.212;27.934;2023-07-28T08:52:36;101112.72;;;27.07;36.39
43257;BME280;28860;43.212;27.934;2023-07-28T08:55:03;101097.25;;;26.61;36.73
43257;BME280;28860;43.212;27.934;2023-07-28T08:57:31;101100.19;;;26.90;36.44
43257;BME280;28860;43.212;27.934;2023-07-28T08:59:56;101100.81;;;27.22;36.36
43257;BME280;28860;43.212;27.934;2023-07-28T09:02:22;101086.31;;;27.13;36.62
43257;BME280;28860;43.212;27.934;2023-07-28T09:04:48;101097.69;;;27.10;35.85
43257;BME280;28860;43.212;27.934;2023-07-28T09:07:14;101084.97;;;27.09;35.42
43257;BME280;28860;43.212;27.934;2023-07-28T09:09:41;101094.84;;;27.18;34.46
43257;BME280;28860;43.212;27.934;2023-07-28T09:12:09;101078.88;;;27.29;34.87
43257;BME280;28860;43.212;27.934;2023-07-28T09:14:36;101090.47;;;27.46;34.94
43257;BME280;28860;43.212;27.934;2023-07-28T09:17:15;101096.41;;;27.64;34.30
43257;BME280;28860;43.212;27.934;2023-07-28T09:19:51;101101.31;;;27.69;33.61
43257;BME280;28860;43.212;27.934;2023-07-28T09:22:17;101102.19;;;27.69;33.69
43257;BME280;28860;43.212;27.934;2023-07-28T09:24:44;101097.16;;;27.73;33.87
43257;BME280;28860;43.212;27.934;2023-07-28T09:27:27;101099.22;;;27.71;33.02
43257;BME280;28860;43.212;27.934;2023-07-28T09:29:55;101080.91;;;27.63;32.21
43257;BME280;28860;43.212;27.934;2023-07-28T09:32:31;101095.88;;;27.76;31.85
43257;BME280;28860;43.212;27.934;2023-07-28T09:37:33;101094.50;;;27.65;32.15
43257;BME280;28860;43.212;27.934;2023-07-28T09:40:00;101091.81;;;27.50;30.53
43257;BME280;28860;43.212;27.934;2023-07-28T09:42:30;101082.97;;;27.54;31.11
43257;BME280;28860;43.212;27.934;2023-07-28T09:44:56;101072.31;;;27.51;31.41
43257;BME280;28860;43.212;27.934;2023-07-28T09:47:24;101076.50;;;27.47;30.90
43257;BME280;28860;43.212;27.934;2023-07-28T09:49:50;101076.34;;;27.71;30.38
43257;BME280;28860;43.212;27.934;2023-07-28T09:52:19;101080.06;;;27.85;29.95
43257;BME280;28860;43.212;27.934;2023-07-28T09:54:48;101091.84;;;28.00;29.38
43257;BME280;28860;43.212;27.934;2023-07-28T09:57:20;101098.16;;;27.94;28.93
43257;BME280;28860;43.212;27.934;2023-07-28T09:59:49;101083.44;;;28.08;29.29
43257;BME280;28860;43.212;27.934;2023-07-28T10:02:18;101102.31;;;28.33;30.30
43257;BME280;28860;43.212;27.934;2023-07-28T10:04:44;101105.69;;;28.29;30.47
43257;BME280;28860;43.212;27.934;2023-07-28T10:07:13;101086.09;;;28.23;30.67
43257;BME280;28860;43.212;27.934;2023-07-28T10:09:41;101089.97;;;28.29;29.34
43257;BME280;28860;43.212;27.934;2023-07-28T10:12:17;101098.59;;;28.48;39.41
43257;BME280;28860;43.212;27.934;2023-07-28T10:14:44;101076.75;;;28.53;41.31
43257;BME280;28860;43.212;27.934;2023-07-28T10:17:16;101092.25;;;28.54;41.92
43257;BME280;28860;43.212;27.934;2023-07-28T10:19:42;101089.34;;;28.62;41.62
43257;BME280;28860;43.212;27.934;2023-07-28T10:22:10;101080.88;;;28.71;41.35
43257;BME280;28860;43.212;27.934;2023-07-28T10:25:02;101074.88;;;28.60;42.57
43257;BME280;28860;43.212;27.934;2023-07-28T10:27:29;101077.16;;;28.50;41.68
43257;BME280;28860;43.212;27.934;2023-07-28T10:29:57;101052.03;;;28.31;41.27
43257;BME280;28860;43.212;27.934;2023-07-28T10:32:28;101063.78;;;28.47;42.42
43257;BME280;28860;43.212;27.934;2023-07-28T10:35:06;101071.09;;;28.61;42.56
43257;BME280;28860;43.212;27.934;2023-07-28T10:37:32;101057.94;;;28.63;41.70
43257;BME280;28860;43.212;27.934;2023-07-28T10:43:00;101056.59;;;28.52;42.92
43257;BME280;28860;43.212;27.934;2023-07-28T10:45:28;101060.84;;;28.55;42.39
43257;BME280;28860;43.212;27.934;2023-07-28T10:47:56;101050.22;;;28.52;41.95
43257;BME280;28860;43.212;27.934;2023-07-28T10:50:22;101040.06;;;28.59;41.95
43257;BME280;28860;43.212;27.934;2023-07-28T10:52:49;101033.59;;;28.38;42.18
43257;BME280;28860;43.212;27.934;2023-07-28T10:55:15;101036.59;;;28.44;41.82
43257;BME280;28860;43.212;27.934;2023-07-28T10:57:42;101023.28;;;28.54;41.70
43257;BME280;28860;43.212;27.934;2023-07-28T11:00:14;101023.53;;;28.66;41.78
43257;BME280;28860;43.212;27.934;2023-07-28T11:02:44;101031.34;;;28.98;42.11
43257;BME280;28860;43.212;27.934;2023-07-28T11:05:12;101029.44;;;28.91;41.65
43257;BME280;28860;43.212;27.934;2023-07-28T11:07:42;101025.81;;;28.98;41.71
43257;BME280;28860;43.212;27.934;2023-07-28T11:10:10;101016.69;;;29.04;40.74
43257;BME280;28860;43.212;27.934;2023-07-28T11:12:40;101032.22;;;29.12;40.34
43257;BME280;28860;43.212;27.934;2023-07-28T11:15:11;101014.78;;;29.04;40.21
43257;BME280;28860;43.212;27.934;2023-07-28T11:17:43;101021.84;;;29.20;39.67
43257;BME280;28860;43.212;27.934;2023-07-28T11:20:21;101014.22;;;29.22;40.48
43257;BME280;28860;43.212;27.934;2023-07-28T11:22:59;101011.44;;;29.16;41.12
43257;BME280;28860;43.212;27.934;2023-07-28T11:25:30;101020.81;;;29.42;40.36
43257;BME280;28860;43.212;27.934;2023-07-28T11:27:56;101008.09;;;29.47;40.43
43257;BME280;28860;43.212;27.934;2023-07-28T11:30:25;101028.94;;;29.84;39.52
43257;BME280;28860;43.212;27.934;2023-07-28T11:32:51;100998.53;;;29.77;39.38
43257;BME280;28860;43.212;27.934;2023-07-28T11:35:21;101005.94;;;29.90;38.37
43257;BME280;28860;43.212;27.934;2023-07-28T11:37:50;101015.31;;;29.75;39.01
43257;BME280;28860;43.212;27.934;2023-07-28T11:40:17;101005.13;;;29.76;39.12
43257;BME280;28860;43.212;27.934;2023-07-28T11:42:46;101004.69;;;29.92;38.83
43257;BME280;28860;43.212;27.934;2023-07-28T11:45:13;101008.53;;;30.05;38.24
43257;BME280;28860;43.212;27.934;2023-07-28T11:47:55;101000.22;;;30.05;38.71
43257;BME280;28860;43.212;27.934;2023-07-28T11:50:25;100992.75;;;30.05;38.13
43257;BME280;28860;43.212;27.934;2023-07-28T11:52:51;100988.09;;;29.86;38.18
43257;BME280;28860;43.212;27.934;2023-07-28T11:55:21;100994.25;;;29.94;38.32
43257;BME280;28860;43.212;27.934;2023-07-28T11:57:47;100988.53;;;29.83;38.44
43257;BME280;28860;43.212;27.934;2023-07-28T12:00:14;100984.88;;;29.96;38.05
43257;BME280;28860;43.212;27.934;2023-07-28T12:02:42;100995.31;;;30.14;37.86
43257;BME280;28860;43.212;27.934;2023-07-28T12:05:15;100975.75;;;30.08;37.85
43257;BME280;28860;43.212;27.934;2023-07-28T12:07:47;100975.47;;;30.30;37.66
43257;BME280;28860;43.212;27.934;2023-07-28T12:10:15;100989.31;;;30.30;37.97
43257;BME280;28860;43.212;27.934;2023-07-28T12:12:46;100973.34;;;30.26;37.49
43257;BME280;28860;43.212;27.934;2023-07-28T12:18:10;100982.13;;;30.16;37.00
43257;BME280;28860;43.212;27.934;2023-07-28T12:20:38;100970.66;;;30.05;37.48
43257;BME280;28860;43.212;27.934;2023-07-28T12:23:05;100976.78;;;30.21;37.14
43257;BME280;28860;43.212;27.934;2023-07-28T12:25:32;100957.84;;;30.25;36.96
43257;BME280;28860;43.212;27.934;2023-07-28T12:27:58;100974.59;;;30.30;36.32
43257;BME280;28860;43.212;27.934;2023-07-28T12:30:24;100964.19;;;30.32;36.32
43257;BME280;28860;43.212;27.934;2023-07-28T12:32:50;100956.78;;;30.19;36.71
43257;BME280;28860;43.212;27.934;2023-07-28T12:35:16;100959.50;;;30.32;36.68
43257;BME280;28860;43.212;27.934;2023-07-28T12:37:42;100965.53;;;30.09;36.80
43257;BME280;28860;43.212;27.934;2023-07-28T12:40:08;100958.25;;;30.28;36.87
43257;BME280;28860;43.212;27.934;2023-07-28T12:42:34;100961.66;;;30.30;37.45
43257;BME280;28860;43.212;27.934;2023-07-28T12:44:59;100931.09;;;30.12;36.90
43257;BME280;28860;43.212;27.934;2023-07-28T12:47:25;100940.44;;;30.17;37.26
43257;BME280;28860;43.212;27.934;2023-07-28T12:49:51;100950.59;;;30.30;37.48
43257;BME280;28860;43.212;27.934;2023-07-28T12:52:16;100948.44;;;30.32;37.26
43257;BME280;28860;43.212;27.934;2023-07-28T12:54:45;100951.00;;;30.34;37.21